KRWL/RWL METAR and TAF weather

Enter ICAO airport designator
Station Type Date Time Source
KRWL METAR 2019/04/18 14:53 UTC NOAA

KRWL 181453Z AUTO 32013KT 10SM CLR 06/M05 A3029 RMK AO2 SLP230 T00561050 51022


Station Type Date Time Source
KRWL Decoded METAR 2019/04/18 14:53 UTC NOAA

RAWLINS MUNICIPAL AIRPORT, WY, United States (KRWL) 41-48N 107-12W
Apr 18, 2019 - 10:53 AM EDT / 2019.04.18 1453 UTC
Wind: from the NW (320 degrees) at 15 MPH (13 KT):0
Visibility: 10 mile(s):0
Sky conditions: clear
Temperature: 42.1 F (5.6 C)
Dew Point: 23.0 F (-5.0 C)
Relative Humidity: 46%
Pressure (altimeter): 30.29 in. Hg (1025 hPa)
Pressure tendency: 0.06 inches (2.2 hPa) higher than three hours ago
ob: KRWL 181453Z AUTO 32013KT 10SM CLR 06/M05 A3029 RMK AO2 SLP230 T00561050 51022
cycle: 15

Station Type Date Time Source
KRWL TAF 2019/04/18 12:22 UTC NOAA

TAF KRWL 181120Z 1812/1912 28018G28KT P6SM SCT050
FM181500 29022G32KT P6SM BKN050
FM190100 25007KT P6SM SCT100

Example: see airport list